sensor_id;sensor_type;location;lat;lon;timestamp;P1;durP1;ratioP1;P2;durP2;ratioP2
84695;SDS011;74913;40.204;44.532;2024-02-23T00:02:24;13.75;;;6.90;;
84695;SDS011;74913;40.204;44.532;2024-02-23T00:04:50;11.55;;;6.13;;
84695;SDS011;74913;40.204;44.532;2024-02-23T00:07:15;14.80;;;6.82;;
84695;SDS011;74913;40.204;44.532;2024-02-23T00:09:41;12.55;;;6.78;;
84695;SDS011;74913;40.204;44.532;2024-02-23T00:12:07;13.98;;;6.82;;
84695;SDS011;74913;40.204;44.532;2024-02-23T00:14:33;15.27;;;7.38;;
84695;SDS011;74913;40.204;44.532;2024-02-23T00:17:01;13.68;;;6.93;;
84695;SDS011;74913;40.204;44.532;2024-02-23T00:19:29;14.23;;;7.13;;
84695;SDS011;74913;40.204;44.532;2024-02-23T00:21:58;15.95;;;7.82;;
84695;SDS011;74913;40.204;44.532;2024-02-23T00:26:50;11.85;;;6.68;;
84695;SDS011;74913;40.204;44.532;2024-02-23T00:29:16;15.50;;;8.27;;
84695;SDS011;74913;40.204;44.532;2024-02-23T00:31:42;14.13;;;7.85;;
84695;SDS011;74913;40.204;44.532;2024-02-23T00:34:10;12.18;;;7.65;;
84695;SDS011;74913;40.204;44.532;2024-02-23T00:36:41;16.08;;;8.38;;
84695;SDS011;74913;40.204;44.532;2024-02-23T00:39:07;16.52;;;7.97;;
84695;SDS011;74913;40.204;44.532;2024-02-23T00:41:34;14.75;;;8.48;;
84695;SDS011;74913;40.204;44.532;2024-02-23T00:44:00;8.30;;;5.43;;
84695;SDS011;74913;40.204;44.532;2024-02-23T00:46:26;11.43;;;5.72;;
84695;SDS011;74913;40.204;44.532;2024-02-23T00:48:51;9.30;;;5.25;;
84695;SDS011;74913;40.204;44.532;2024-02-23T00:51:17;8.68;;;5.57;;
84695;SDS011;74913;40.204;44.532;2024-02-23T00:53:43;8.45;;;5.53;;
84695;SDS011;74913;40.204;44.532;2024-02-23T00:56:08;10.38;;;6.25;;
84695;SDS011;74913;40.204;44.532;2024-02-23T00:58:34;12.05;;;7.53;;
84695;SDS011;74913;40.204;44.532;2024-02-23T01:01:00;10.88;;;6.70;;
84695;SDS011;74913;40.204;44.532;2024-02-23T01:03:25;10.30;;;6.53;;
84695;SDS011;74913;40.204;44.532;2024-02-23T01:05:51;10.40;;;6.70;;
84695;SDS011;74913;40.204;44.532;2024-02-23T01:08:17;10.35;;;6.22;;
84695;SDS011;74913;40.204;44.532;2024-02-23T01:10:42;8.30;;;5.47;;
84695;SDS011;74913;40.204;44.532;2024-02-23T01:13:08;8.15;;;5.00;;
84695;SDS011;74913;40.204;44.532;2024-02-23T01:15:34;8.35;;;5.85;;
84695;SDS011;74913;40.204;44.532;2024-02-23T01:17:59;8.23;;;5.70;;
84695;SDS011;74913;40.204;44.532;2024-02-23T01:20:25;12.45;;;7.07;;
84695;SDS011;74913;40.204;44.532;2024-02-23T01:22:51;12.55;;;6.50;;
84695;SDS011;74913;40.204;44.532;2024-02-23T01:25:17;11.52;;;6.57;;
84695;SDS011;74913;40.204;44.532;2024-02-23T01:27:42;12.85;;;6.90;;
84695;SDS011;74913;40.204;44.532;2024-02-23T01:30:11;11.75;;;6.60;;
84695;SDS011;74913;40.204;44.532;2024-02-23T01:32:37;10.63;;;6.00;;
84695;SDS011;74913;40.204;44.532;2024-02-23T01:35:04;11.20;;;6.18;;
84695;SDS011;74913;40.204;44.532;2024-02-23T01:37:31;9.10;;;5.15;;
84695;SDS011;74913;40.204;44.532;2024-02-23T01:39:57;11.68;;;5.47;;
84695;SDS011;74913;40.204;44.532;2024-02-23T01:42:24;7.07;;;4.45;;
84695;SDS011;74913;40.204;44.532;2024-02-23T01:44:51;7.47;;;4.72;;
84695;SDS011;74913;40.204;44.532;2024-02-23T01:47:16;6.72;;;4.82;;
84695;SDS011;74913;40.204;44.532;2024-02-23T01:49:43;8.50;;;4.88;;
84695;SDS011;74913;40.204;44.532;2024-02-23T01:52:10;8.38;;;4.70;;
84695;SDS011;74913;40.204;44.532;2024-02-23T01:54:37;6.53;;;4.13;;
84695;SDS011;74913;40.204;44.532;2024-02-23T01:57:02;5.68;;;4.18;;
84695;SDS011;74913;40.204;44.532;2024-02-23T01:59:28;6.22;;;4.07;;
84695;SDS011;74913;40.204;44.532;2024-02-23T02:01:55;5.40;;;3.65;;
84695;SDS011;74913;40.204;44.532;2024-02-23T02:04:21;8.15;;;4.50;;
84695;SDS011;74913;40.204;44.532;2024-02-23T02:06:46;4.80;;;3.33;;
84695;SDS011;74913;40.204;44.532;2024-02-23T02:09:13;6.90;;;4.18;;
84695;SDS011;74913;40.204;44.532;2024-02-23T02:11:48;6.80;;;4.63;;
84695;SDS011;74913;40.204;44.532;2024-02-23T02:14:15;7.13;;;3.92;;
84695;SDS011;74913;40.204;44.532;2024-02-23T02:16:41;8.43;;;4.70;;
84695;SDS011;74913;40.204;44.532;2024-02-23T02:19:07;7.05;;;5.13;;
84695;SDS011;74913;40.204;44.532;2024-02-23T02:21:32;6.50;;;4.28;;
84695;SDS011;74913;40.204;44.532;2024-02-23T02:23:59;7.50;;;4.50;;
84695;SDS011;74913;40.204;44.532;2024-02-23T02:26:24;6.97;;;4.05;;
84695;SDS011;74913;40.204;44.532;2024-02-23T02:28:50;5.20;;;4.13;;
84695;SDS011;74913;40.204;44.532;2024-02-23T02:31:17;5.70;;;4.00;;
84695;SDS011;74913;40.204;44.532;2024-02-23T02:33:43;6.88;;;3.70;;
84695;SDS011;74913;40.204;44.532;2024-02-23T02:36:09;6.05;;;3.70;;
84695;SDS011;74913;40.204;44.532;2024-02-23T02:38:35;5.93;;;4.18;;
84695;SDS011;74913;40.204;44.532;2024-02-23T02:41:00;5.57;;;3.55;;
84695;SDS011;74913;40.204;44.532;2024-02-23T02:43:26;5.85;;;3.85;;
84695;SDS011;74913;40.204;44.532;2024-02-23T02:45:52;5.68;;;3.97;;
84695;SDS011;74913;40.204;44.532;2024-02-23T02:48:18;4.95;;;3.58;;
84695;SDS011;74913;40.204;44.532;2024-02-23T02:50:44;6.15;;;3.70;;
84695;SDS011;74913;40.204;44.532;2024-02-23T02:53:10;5.60;;;3.42;;
84695;SDS011;74913;40.204;44.532;2024-02-23T02:58:02;5.88;;;3.88;;
84695;SDS011;74913;40.204;44.532;2024-02-23T03:00:27;5.15;;;3.50;;
84695;SDS011;74913;40.204;44.532;2024-02-23T03:02:53;6.00;;;3.80;;
84695;SDS011;74913;40.204;44.532;2024-02-23T03:05:19;6.55;;;3.40;;
84695;SDS011;74913;40.204;44.532;2024-02-23T03:07:45;6.60;;;3.45;;
84695;SDS011;74913;40.204;44.532;2024-02-23T03:10:11;4.80;;;2.95;;
84695;SDS011;74913;40.204;44.532;2024-02-23T03:12:36;4.35;;;3.38;;
84695;SDS011;74913;40.204;44.532;2024-02-23T03:15:02;5.38;;;3.50;;
84695;SDS011;74913;40.204;44.532;2024-02-23T03:17:28;4.10;;;3.13;;
84695;SDS011;74913;40.204;44.532;2024-02-23T03:19:54;8.55;;;4.35;;
84695;SDS011;74913;40.204;44.532;2024-02-23T03:22:20;7.95;;;4.97;;
84695;SDS011;74913;40.204;44.532;2024-02-23T03:24:45;7.30;;;5.13;;
84695;SDS011;74913;40.204;44.532;2024-02-23T03:27:11;9.10;;;5.07;;
84695;SDS011;74913;40.204;44.532;2024-02-23T03:29:38;6.55;;;4.18;;
84695;SDS011;74913;40.204;44.532;2024-02-23T03:32:04;5.25;;;3.83;;
84695;SDS011;74913;40.204;44.532;2024-02-23T03:34:29;6.50;;;3.83;;
84695;SDS011;74913;40.204;44.532;2024-02-23T03:36:55;6.68;;;3.80;;
84695;SDS011;74913;40.204;44.532;2024-02-23T03:39:21;5.43;;;3.72;;
84695;SDS011;74913;40.204;44.532;2024-02-23T03:41:46;7.82;;;4.97;;
84695;SDS011;74913;40.204;44.532;2024-02-23T03:44:12;8.73;;;5.35;;
84695;SDS011;74913;40.204;44.532;2024-02-23T03:46:38;9.88;;;4.93;;
84695;SDS011;74913;40.204;44.532;2024-02-23T03:49:03;8.70;;;4.93;;
84695;SDS011;74913;40.204;44.532;2024-02-23T03:51:29;9.00;;;5.35;;
84695;SDS011;74913;40.204;44.532;2024-02-23T03:53:54;10.35;;;6.43;;
84695;SDS011;74913;40.204;44.532;2024-02-23T03:56:20;9.23;;;5.35;;
84695;SDS011;74913;40.204;44.532;2024-02-23T03:58:45;8.32;;;4.95;;
84695;SDS011;74913;40.204;44.532;2024-02-23T04:01:11;9.63;;;5.80;;
84695;SDS011;74913;40.204;44.532;2024-02-23T04:03:37;10.80;;;6.43;;
84695;SDS011;74913;40.204;44.532;2024-02-23T04:06:02;10.20;;;5.85;;
84695;SDS011;74913;40.204;44.532;2024-02-23T04:08:28;13.18;;;6.28;;
84695;SDS011;74913;40.204;44.532;2024-02-23T04:10:54;9.80;;;5.78;;
84695;SDS011;74913;40.204;44.532;2024-02-23T04:13:19;10.70;;;5.95;;
84695;SDS011;74913;40.204;44.532;2024-02-23T04:15:45;12.07;;;6.30;;
84695;SDS011;74913;40.204;44.532;2024-02-23T04:18:11;11.73;;;6.60;;
84695;SDS011;74913;40.204;44.532;2024-02-23T04:20:36;11.18;;;6.40;;
84695;SDS011;74913;40.204;44.532;2024-02-23T04:23:02;10.15;;;5.93;;
84695;SDS011;74913;40.204;44.532;2024-02-23T04:25:28;10.00;;;6.10;;
84695;SDS011;74913;40.204;44.532;2024-02-23T04:27:53;12.57;;;6.95;;
84695;SDS011;74913;40.204;44.532;2024-02-23T04:30:19;10.77;;;6.65;;
84695;SDS011;74913;40.204;44.532;2024-02-23T04:32:44;16.23;;;8.00;;
84695;SDS011;74913;40.204;44.532;2024-02-23T04:35:10;14.43;;;9.05;;
84695;SDS011;74913;40.204;44.532;2024-02-23T04:37:36;20.08;;;12.15;;
84695;SDS011;74913;40.204;44.532;2024-02-23T04:40:01;16.55;;;9.57;;
84695;SDS011;74913;40.204;44.532;2024-02-23T04:42:30;14.70;;;9.32;;
84695;SDS011;74913;40.204;44.532;2024-02-23T04:44:56;16.13;;;8.93;;
84695;SDS011;74913;40.204;44.532;2024-02-23T04:47:22;12.45;;;7.88;;
84695;SDS011;74913;40.204;44.532;2024-02-23T04:49:47;12.07;;;5.80;;
84695;SDS011;74913;40.204;44.532;2024-02-23T04:52:14;14.93;;;8.52;;
84695;SDS011;74913;40.204;44.532;2024-02-23T04:54:40;16.20;;;9.30;;
84695;SDS011;74913;40.204;44.532;2024-02-23T04:57:05;19.00;;;9.40;;
84695;SDS011;74913;40.204;44.532;2024-02-23T04:59:31;17.25;;;9.05;;
84695;SDS011;74913;40.204;44.532;2024-02-23T05:04:23;13.48;;;8.77;;
84695;SDS011;74913;40.204;44.532;2024-02-23T05:06:48;16.75;;;9.10;;
84695;SDS011;74913;40.204;44.532;2024-02-23T05:09:14;16.88;;;9.85;;
84695;SDS011;74913;40.204;44.532;2024-02-23T05:11:40;17.08;;;9.93;;
84695;SDS011;74913;40.204;44.532;2024-02-23T05:14:05;16.13;;;9.18;;
84695;SDS011;74913;40.204;44.532;2024-02-23T05:16:31;15.55;;;9.13;;
84695;SDS011;74913;40.204;44.532;2024-02-23T05:18:57;19.05;;;10.82;;
84695;SDS011;74913;40.204;44.532;2024-02-23T05:21:22;15.90;;;10.40;;
84695;SDS011;74913;40.204;44.532;2024-02-23T05:23:48;18.13;;;9.77;;
84695;SDS011;74913;40.204;44.532;2024-02-23T05:26:13;14.60;;;8.35;;
84695;SDS011;74913;40.204;44.532;2024-02-23T05:28:39;17.58;;;8.93;;
84695;SDS011;74913;40.204;44.532;2024-02-23T05:31:04;16.33;;;10.20;;
84695;SDS011;74913;40.204;44.532;2024-02-23T05:33:30;20.20;;;11.52;;
84695;SDS011;74913;40.204;44.532;2024-02-23T05:35:56;16.35;;;9.07;;
84695;SDS011;74913;40.204;44.532;2024-02-23T05:38:21;16.02;;;8.88;;
84695;SDS011;74913;40.204;44.532;2024-02-23T05:40:47;14.65;;;8.82;;
84695;SDS011;74913;40.204;44.532;2024-02-23T05:43:13;18.33;;;10.85;;
84695;SDS011;74913;40.204;44.532;2024-02-23T05:45:39;19.17;;;11.70;;
84695;SDS011;74913;40.204;44.532;2024-02-23T05:48:05;19.50;;;10.48;;
84695;SDS011;74913;40.204;44.532;2024-02-23T05:50:31;19.83;;;9.95;;
84695;SDS011;74913;40.204;44.532;2024-02-23T05:52:57;25.15;;;16.25;;
84695;SDS011;74913;40.204;44.532;2024-02-23T05:55:23;23.80;;;14.27;;
84695;SDS011;74913;40.204;44.532;2024-02-23T05:57:49;17.17;;;11.00;;
84695;SDS011;74913;40.204;44.532;2024-02-23T06:00:16;21.25;;;11.10;;
84695;SDS011;74913;40.204;44.532;2024-02-23T06:02:44;17.67;;;10.38;;
84695;SDS011;74913;40.204;44.532;2024-02-23T06:05:11;20.42;;;11.40;;
84695;SDS011;74913;40.204;44.532;2024-02-23T06:07:37;18.58;;;9.82;;
84695;SDS011;74913;40.204;44.532;2024-02-23T06:10:03;16.63;;;10.00;;
84695;SDS011;74913;40.204;44.532;2024-02-23T06:12:30;19.73;;;10.63;;
84695;SDS011;74913;40.204;44.532;2024-02-23T06:14:55;18.35;;;11.15;;
84695;SDS011;74913;40.204;44.532;2024-02-23T06:17:23;20.70;;;12.57;;
84695;SDS011;74913;40.204;44.532;2024-02-23T06:19:49;21.27;;;11.10;;
84695;SDS011;74913;40.204;44.532;2024-02-23T06:22:14;18.50;;;11.35;;
84695;SDS011;74913;40.204;44.532;2024-02-23T06:24:46;16.65;;;9.73;;
84695;SDS011;74913;40.204;44.532;2024-02-23T06:27:14;19.80;;;10.18;;
84695;SDS011;74913;40.204;44.532;2024-02-23T06:29:39;19.45;;;9.75;;
84695;SDS011;74913;40.204;44.532;2024-02-23T06:32:05;18.80;;;10.43;;
84695;SDS011;74913;40.204;44.532;2024-02-23T06:34:31;20.42;;;11.45;;
84695;SDS011;74913;40.204;44.532;2024-02-23T06:36:57;23.50;;;12.48;;
84695;SDS011;74913;40.204;44.532;2024-02-23T06:39:22;24.65;;;11.60;;
84695;SDS011;74913;40.204;44.532;2024-02-23T06:41:48;26.02;;;13.82;;
84695;SDS011;74913;40.204;44.532;2024-02-23T06:44:14;22.88;;;12.48;;
84695;SDS011;74913;40.204;44.532;2024-02-23T06:46:39;23.30;;;12.15;;
84695;SDS011;74913;40.204;44.532;2024-02-23T06:49:06;24.20;;;14.70;;
84695;SDS011;74913;40.204;44.532;2024-02-23T06:51:32;20.75;;;14.40;;
84695;SDS011;74913;40.204;44.532;2024-02-23T06:53:58;24.70;;;15.43;;
84695;SDS011;74913;40.204;44.532;2024-02-23T06:56:23;27.45;;;13.93;;
84695;SDS011;74913;40.204;44.532;2024-02-23T06:58:49;23.20;;;13.13;;
84695;SDS011;74913;40.204;44.532;2024-02-23T07:01:15;20.70;;;12.43;;
84695;SDS011;74913;40.204;44.532;2024-02-23T07:03:40;26.05;;;14.50;;
84695;SDS011;74913;40.204;44.532;2024-02-23T07:06:08;24.75;;;13.05;;
84695;SDS011;74913;40.204;44.532;2024-02-23T07:08:36;22.60;;;14.13;;
84695;SDS011;74913;40.204;44.532;2024-02-23T07:11:02;21.98;;;11.63;;
84695;SDS011;74913;40.204;44.532;2024-02-23T07:13:28;21.58;;;12.15;;
84695;SDS011;74913;40.204;44.532;2024-02-23T07:15:55;17.55;;;10.40;;
84695;SDS011;74913;40.204;44.532;2024-02-23T07:18:21;19.13;;;11.48;;
84695;SDS011;74913;40.204;44.532;2024-02-23T07:20:47;19.35;;;12.45;;
84695;SDS011;74913;40.204;44.532;2024-02-23T07:23:13;26.75;;;14.70;;
84695;SDS011;74913;40.204;44.532;2024-02-23T07:25:38;25.77;;;14.85;;
84695;SDS011;74913;40.204;44.532;2024-02-23T07:28:04;18.65;;;11.15;;
84695;SDS011;74913;40.204;44.532;2024-02-23T07:32:55;17.38;;;11.07;;
84695;SDS011;74913;40.204;44.532;2024-02-23T07:35:21;15.73;;;9.52;;
84695;SDS011;74913;40.204;44.532;2024-02-23T07:37:47;21.05;;;10.70;;
84695;SDS011;74913;40.204;44.532;2024-02-23T07:40:12;18.08;;;11.98;;
84695;SDS011;74913;40.204;44.532;2024-02-23T07:42:38;19.63;;;10.50;;
84695;SDS011;74913;40.204;44.532;2024-02-23T07:45:04;21.63;;;12.57;;
84695;SDS011;74913;40.204;44.532;2024-02-23T07:47:31;16.63;;;10.98;;
84695;SDS011;74913;40.204;44.532;2024-02-23T07:49:57;23.60;;;12.43;;
84695;SDS011;74913;40.204;44.532;2024-02-23T07:54:49;23.05;;;13.98;;
84695;SDS011;74913;40.204;44.532;2024-02-23T07:57:17;18.55;;;12.10;;
84695;SDS011;74913;40.204;44.532;2024-02-23T07:59:43;30.15;;;16.13;;
84695;SDS011;74913;40.204;44.532;2024-02-23T08:02:09;28.08;;;18.40;;
84695;SDS011;74913;40.204;44.532;2024-02-23T08:04:35;23.83;;;14.20;;
84695;SDS011;74913;40.204;44.532;2024-02-23T08:07:00;25.70;;;14.65;;
84695;SDS011;74913;40.204;44.532;2024-02-23T08:09:26;30.10;;;16.67;;
84695;SDS011;74913;40.204;44.532;2024-02-23T08:11:52;29.45;;;14.75;;
84695;SDS011;74913;40.204;44.532;2024-02-23T08:14:17;24.83;;;13.93;;
84695;SDS011;74913;40.204;44.532;2024-02-23T08:16:43;25.98;;;13.35;;
84695;SDS011;74913;40.204;44.532;2024-02-23T08:19:09;35.17;;;21.63;;
84695;SDS011;74913;40.204;44.532;2024-02-23T08:21:34;28.85;;;16.27;;
84695;SDS011;74913;40.204;44.532;2024-02-23T08:24:00;24.30;;;13.32;;
84695;SDS011;74913;40.204;44.532;2024-02-23T08:26:25;25.50;;;13.88;;
84695;SDS011;74913;40.204;44.532;2024-02-23T08:28:51;21.75;;;13.30;;
84695;SDS011;74913;40.204;44.532;2024-02-23T08:31:16;19.27;;;11.18;;
84695;SDS011;74913;40.204;44.532;2024-02-23T08:33:42;19.40;;;11.80;;
84695;SDS011;74913;40.204;44.532;2024-02-23T08:36:08;21.00;;;12.75;;
84695;SDS011;74913;40.204;44.532;2024-02-23T08:38:33;16.10;;;9.32;;
84695;SDS011;74913;40.204;44.532;2024-02-23T08:40:59;13.60;;;8.77;;
84695;SDS011;74913;40.204;44.532;2024-02-23T08:43:25;18.38;;;9.40;;
84695;SDS011;74913;40.204;44.532;2024-02-23T08:45:50;15.23;;;9.55;;
84695;SDS011;74913;40.204;44.532;2024-02-23T08:48:16;17.50;;;9.90;;
84695;SDS011;74913;40.204;44.532;2024-02-23T08:50:43;15.00;;;10.90;;
84695;SDS011;74913;40.204;44.532;2024-02-23T08:55:35;18.95;;;10.52;;
84695;SDS011;74913;40.204;44.532;2024-02-23T08:58:00;25.98;;;13.45;;
84695;SDS011;74913;40.204;44.532;2024-02-23T09:00:26;18.70;;;10.77;;
84695;SDS011;74913;40.204;44.532;2024-02-23T09:02:51;20.27;;;11.10;;
84695;SDS011;74913;40.204;44.532;2024-02-23T09:05:17;13.90;;;8.63;;
84695;SDS011;74913;40.204;44.532;2024-02-23T09:07:43;9.65;;;6.07;;
84695;SDS011;74913;40.204;44.532;2024-02-23T09:10:10;11.35;;;7.80;;
84695;SDS011;74913;40.204;44.532;2024-02-23T09:12:37;14.25;;;8.77;;
84695;SDS011;74913;40.204;44.532;2024-02-23T09:15:02;14.52;;;8.48;;
84695;SDS011;74913;40.204;44.532;2024-02-23T09:17:28;10.20;;;6.40;;
84695;SDS011;74913;40.204;44.532;2024-02-23T09:19:54;9.15;;;5.53;;
84695;SDS011;74913;40.204;44.532;2024-02-23T09:22:20;7.25;;;5.03;;
84695;SDS011;74913;40.204;44.532;2024-02-23T09:24:45;11.38;;;6.32;;
84695;SDS011;74913;40.204;44.532;2024-02-23T09:27:11;13.10;;;8.02;;
84695;SDS011;74913;40.204;44.532;2024-02-23T09:29:37;12.50;;;7.47;;
84695;SDS011;74913;40.204;44.532;2024-02-23T09:32:02;10.98;;;6.20;;
84695;SDS011;74913;40.204;44.532;2024-02-23T09:34:30;9.85;;;6.03;;
84695;SDS011;74913;40.204;44.532;2024-02-23T09:36:55;12.20;;;6.38;;
84695;SDS011;74913;40.204;44.532;2024-02-23T09:39:21;14.27;;;7.10;;
84695;SDS011;74913;40.204;44.532;2024-02-23T09:41:49;13.23;;;6.90;;
84695;SDS011;74913;40.204;44.532;2024-02-23T09:44:16;14.38;;;7.55;;
84695;SDS011;74913;40.204;44.532;2024-02-23T09:46:43;14.80;;;8.27;;
84695;SDS011;74913;40.204;44.532;2024-02-23T09:49:09;23.17;;;11.20;;
84695;SDS011;74913;40.204;44.532;2024-02-23T09:51:36;17.73;;;10.60;;
84695;SDS011;74913;40.204;44.532;2024-02-23T09:54:04;14.90;;;9.38;;
84695;SDS011;74913;40.204;44.532;2024-02-23T09:56:29;14.90;;;7.97;;
84695;SDS011;74913;40.204;44.532;2024-02-23T09:58:56;16.65;;;8.80;;
84695;SDS011;74913;40.204;44.532;2024-02-23T10:01:27;16.80;;;9.43;;
84695;SDS011;74913;40.204;44.532;2024-02-23T10:03:56;15.73;;;8.50;;
84695;SDS011;74913;40.204;44.532;2024-02-23T10:06:31;13.15;;;7.30;;
84695;SDS011;74913;40.204;44.532;2024-02-23T10:11:23;21.42;;;9.50;;
84695;SDS011;74913;40.204;44.532;2024-02-23T10:13:50;47.70;;;21.52;;
84695;SDS011;74913;40.204;44.532;2024-02-23T10:16:20;26.30;;;14.65;;
84695;SDS011;74913;40.204;44.532;2024-02-23T10:18:49;15.93;;;7.57;;
84695;SDS011;74913;40.204;44.532;2024-02-23T10:21:15;18.85;;;8.80;;
84695;SDS011;74913;40.204;44.532;2024-02-23T10:23:41;13.65;;;6.85;;
84695;SDS011;74913;40.204;44.532;2024-02-23T10:26:09;11.50;;;6.03;;
84695;SDS011;74913;40.204;44.532;2024-02-23T10:28:37;20.00;;;9.43;;
84695;SDS011;74913;40.204;44.532;2024-02-23T10:31:06;23.50;;;8.50;;
84695;SDS011;74913;40.204;44.532;2024-02-23T10:33:32;12.70;;;6.28;;
84695;SDS011;74913;40.204;44.532;2024-02-23T10:35:58;23.17;;;8.40;;
84695;SDS011;74913;40.204;44.532;2024-02-23T10:38:26;11.77;;;7.22;;
84695;SDS011;74913;40.204;44.532;2024-02-23T10:40:54;9.93;;;6.20;;
84695;SDS011;74913;40.204;44.532;2024-02-23T10:43:28;17.58;;;5.70;;
84695;SDS011;74913;40.204;44.532;2024-02-23T10:45:58;9.68;;;5.20;;
84695;SDS011;74913;40.204;44.532;2024-02-23T10:48:27;10.80;;;4.40;;
84695;SDS011;74913;40.204;44.532;2024-02-23T10:50:55;12.48;;;4.07;;
84695;SDS011;74913;40.204;44.532;2024-02-23T10:53:29;11.43;;;4.20;;
84695;SDS011;74913;40.204;44.532;2024-02-23T10:55:56;10.63;;;4.25;;
84695;SDS011;74913;40.204;44.532;2024-02-23T10:58:26;7.63;;;3.95;;
84695;SDS011;74913;40.204;44.532;2024-02-23T11:01:06;6.40;;;4.25;;
84695;SDS011;74913;40.204;44.532;2024-02-23T11:03:34;8.43;;;3.30;;
84695;SDS011;74913;40.204;44.532;2024-02-23T11:06:06;6.15;;;3.72;;
84695;SDS011;74913;40.204;44.532;2024-02-23T11:08:33;6.97;;;3.60;;
84695;SDS011;74913;40.204;44.532;2024-02-23T11:11:07;5.93;;;3.88;;
84695;SDS011;74913;40.204;44.532;2024-02-23T11:13:37;11.35;;;3.92;;
84695;SDS011;74913;40.204;44.532;2024-02-23T11:16:06;8.82;;;3.65;;
84695;SDS011;74913;40.204;44.532;2024-02-23T11:18:36;8.80;;;3.00;;
84695;SDS011;74913;40.204;44.532;2024-02-23T11:21:04;8.70;;;2.83;;
84695;SDS011;74913;40.204;44.532;2024-02-23T11:26:12;9.98;;;4.05;;
84695;SDS011;74913;40.204;44.532;2024-02-23T11:28:42;15.23;;;6.95;;
84695;SDS011;74913;40.204;44.532;2024-02-23T11:31:12;11.38;;;4.78;;
84695;SDS011;74913;40.204;44.532;2024-02-23T11:33:48;10.55;;;5.97;;
84695;SDS011;74913;40.204;44.532;2024-02-23T11:36:23;12.57;;;6.20;;
84695;SDS011;74913;40.204;44.532;2024-02-23T11:38:57;12.35;;;5.63;;
84695;SDS011;74913;40.204;44.532;2024-02-23T11:41:25;9.45;;;5.18;;
84695;SDS011;74913;40.204;44.532;2024-02-23T11:43:52;14.40;;;7.03;;
84695;SDS011;74913;40.204;44.532;2024-02-23T11:46:19;13.63;;;5.80;;
84695;SDS011;74913;40.204;44.532;2024-02-23T11:51:22;9.18;;;4.47;;
84695;SDS011;74913;40.204;44.532;2024-02-23T11:53:51;17.73;;;7.00;;
84695;SDS011;74913;40.204;44.532;2024-02-23T11:56:18;16.48;;;6.60;;
84695;SDS011;74913;40.204;44.532;2024-02-23T11:58:45;10.88;;;6.72;;
84695;SDS011;74913;40.204;44.532;2024-02-23T12:01:11;11.20;;;5.97;;
84695;SDS011;74913;40.204;44.532;2024-02-23T12:03:37;9.25;;;5.40;;
84695;SDS011;74913;40.204;44.532;2024-02-23T12:06:04;13.27;;;5.50;;
84695;SDS011;74913;40.204;44.532;2024-02-23T12:08:31;11.50;;;6.35;;
84695;SDS011;74913;40.204;44.532;2024-02-23T12:11:03;18.20;;;6.93;;
84695;SDS011;74913;40.204;44.532;2024-02-23T12:13:30;9.38;;;5.55;;
84695;SDS011;74913;40.204;44.532;2024-02-23T12:15:56;13.63;;;8.23;;
84695;SDS011;74913;40.204;44.532;2024-02-23T12:18:22;13.77;;;7.72;;
84695;SDS011;74913;40.204;44.532;2024-02-23T12:20:51;12.75;;;7.90;;
84695;SDS011;74913;40.204;44.532;2024-02-23T12:23:17;13.00;;;8.32;;
84695;SDS011;74913;40.204;44.532;2024-02-23T12:25:58;11.70;;;8.32;;
84695;SDS011;74913;40.204;44.532;2024-02-23T12:28:25;12.57;;;8.43;;
84695;SDS011;74913;40.204;44.532;2024-02-23T12:30:58;16.20;;;8.35;;
84695;SDS011;74913;40.204;44.532;2024-02-23T12:33:33;14.20;;;8.45;;
84695;SDS011;74913;40.204;44.532;2024-02-23T12:36:01;15.02;;;8.93;;
84695;SDS011;74913;40.204;44.532;2024-02-23T12:38:28;12.35;;;8.40;;
84695;SDS011;74913;40.204;44.532;2024-02-23T12:40:54;11.38;;;7.80;;
84695;SDS011;74913;40.204;44.532;2024-02-23T12:43:20;14.40;;;9.00;;
84695;SDS011;74913;40.204;44.532;2024-02-23T12:48:15;12.32;;;8.25;;
84695;SDS011;74913;40.204;44.532;2024-02-23T12:50:41;13.50;;;7.43;;
84695;SDS011;74913;40.204;44.532;2024-02-23T12:56:03;10.80;;;6.90;;
84695;SDS011;74913;40.204;44.532;2024-02-23T12:58:32;8.98;;;6.13;;
84695;SDS011;74913;40.204;44.532;2024-02-23T13:00:58;8.35;;;5.47;;
84695;SDS011;74913;40.204;44.532;2024-02-23T13:03:24;10.43;;;6.18;;
84695;SDS011;74913;40.204;44.532;2024-02-23T13:05:52;8.85;;;6.07;;
84695;SDS011;74913;40.204;44.532;2024-02-23T13:08:18;12.02;;;6.90;;
84695;SDS011;74913;40.204;44.532;2024-02-23T13:10:44;11.20;;;6.95;;
84695;SDS011;74913;40.204;44.532;2024-02-23T13:13:10;12.15;;;6.13;;
84695;SDS011;74913;40.204;44.532;2024-02-23T13:15:36;7.85;;;5.20;;
84695;SDS011;74913;40.204;44.532;2024-02-23T13:18:04;9.32;;;4.97;;
84695;SDS011;74913;40.204;44.532;2024-02-23T13:22:56;12.77;;;6.13;;
84695;SDS011;74913;40.204;44.532;2024-02-23T13:25:21;10.05;;;5.97;;
84695;SDS011;74913;40.204;44.532;2024-02-23T13:27:47;10.32;;;6.25;;
84695;SDS011;74913;40.204;44.532;2024-02-23T13:30:13;9.05;;;6.05;;
84695;SDS011;74913;40.204;44.532;2024-02-23T13:32:39;8.70;;;5.60;;
84695;SDS011;74913;40.204;44.532;2024-02-23T13:35:05;8.75;;;5.53;;
84695;SDS011;74913;40.204;44.532;2024-02-23T13:37:31;16.27;;;6.93;;
84695;SDS011;74913;40.204;44.532;2024-02-23T13:39:58;11.48;;;6.15;;
84695;SDS011;74913;40.204;44.532;2024-02-23T13:42:23;10.88;;;6.10;;
84695;SDS011;74913;40.204;44.532;2024-02-23T13:44:49;8.95;;;5.20;;
84695;SDS011;74913;40.204;44.532;2024-02-23T13:47:15;8.02;;;4.72;;
84695;SDS011;74913;40.204;44.532;2024-02-23T13:49:40;8.60;;;4.88;;
84695;SDS011;74913;40.204;44.532;2024-02-23T13:52:06;11.10;;;6.05;;
84695;SDS011;74913;40.204;44.532;2024-02-23T13:54:32;16.67;;;6.68;;
84695;SDS011;74913;40.204;44.532;2024-02-23T13:56:57;10.10;;;5.25;;
84695;SDS011;74913;40.204;44.532;2024-02-23T13:59:23;14.23;;;5.72;;
84695;SDS011;74913;40.204;44.532;2024-02-23T14:01:49;10.10;;;5.38;;
84695;SDS011;74913;40.204;44.532;2024-02-23T14:04:14;10.85;;;6.00;;
84695;SDS011;74913;40.204;44.532;2024-02-23T14:06:40;13.52;;;6.40;;
84695;SDS011;74913;40.204;44.532;2024-02-23T14:09:06;17.50;;;6.20;;
84695;SDS011;74913;40.204;44.532;2024-02-23T14:11:32;11.48;;;4.82;;
84695;SDS011;74913;40.204;44.532;2024-02-23T14:13:58;10.13;;;4.40;;
84695;SDS011;74913;40.204;44.532;2024-02-23T14:16:23;9.65;;;4.30;;
84695;SDS011;74913;40.204;44.532;2024-02-23T14:18:49;9.25;;;5.30;;
84695;SDS011;74913;40.204;44.532;2024-02-23T14:21:15;9.05;;;5.18;;
84695;SDS011;74913;40.204;44.532;2024-02-23T14:26:07;9.50;;;4.85;;
84695;SDS011;74913;40.204;44.532;2024-02-23T14:28:33;10.43;;;5.30;;
84695;SDS011;74913;40.204;44.532;2024-02-23T14:30:58;12.35;;;5.88;;
84695;SDS011;74913;40.204;44.532;2024-02-23T14:33:24;11.88;;;5.78;;
84695;SDS011;74913;40.204;44.532;2024-02-23T14:35:50;10.55;;;5.40;;
84695;SDS011;74913;40.204;44.532;2024-02-23T14:38:15;15.95;;;5.70;;
84695;SDS011;74913;40.204;44.532;2024-02-23T14:40:42;13.32;;;5.45;;
84695;SDS011;74913;40.204;44.532;2024-02-23T14:45:35;16.58;;;6.72;;
84695;SDS011;74913;40.204;44.532;2024-02-23T14:48:00;15.50;;;7.63;;
84695;SDS011;74913;40.204;44.532;2024-02-23T14:50:26;14.55;;;7.95;;
84695;SDS011;74913;40.204;44.532;2024-02-23T14:52:52;23.27;;;7.72;;
84695;SDS011;74913;40.204;44.532;2024-02-23T14:55:19;18.23;;;8.65;;